createdAt,value
2023-03-27T00:00:13.183Z,1.60
2023-03-27T00:02:41.592Z,1.70
2023-03-27T00:05:11.529Z,1.80
2023-03-27T00:07:41.257Z,2.00
2023-03-27T00:10:10.078Z,2.80
2023-03-27T00:12:40.125Z,1.57
2023-03-27T00:15:09.737Z,1.50
2023-03-27T00:17:38.102Z,1.50
2023-03-27T00:20:06.998Z,1.57
2023-03-27T00:22:35.965Z,1.63
2023-03-27T00:25:04.252Z,1.60
2023-03-27T00:27:32.588Z,1.73
2023-03-27T00:30:01.863Z,1.80
2023-03-27T00:32:29.837Z,1.53
2023-03-27T00:34:57.863Z,1.70
2023-03-27T00:37:25.899Z,1.50
2023-03-27T00:39:53.942Z,1.27
2023-03-27T00:42:24.069Z,1.10
2023-03-27T00:44:52.656Z,1.27
2023-03-27T00:47:30.929Z,1.50
2023-03-27T00:50:00.485Z,1.40
2023-03-27T00:52:29.550Z,1.10
2023-03-27T00:54:59.256Z,1.17
2023-03-27T00:57:27.572Z,1.40
2023-03-27T00:59:58.314Z,1.83
2023-03-27T01:02:28.520Z,1.60
2023-03-27T01:04:57.638Z,1.47
2023-03-27T01:07:25.812Z,1.37
2023-03-27T01:09:53.829Z,1.30
2023-03-27T01:12:36.853Z,1.33
2023-03-27T01:15:18.882Z,0.80
2023-03-27T01:18:04.745Z,0.97
2023-03-27T01:21:10.033Z,0.80
2023-03-27T01:24:15.479Z,1.27
2023-03-27T01:27:05.456Z,0.80
2023-03-27T01:30:02.970Z,1.10
2023-03-27T01:32:59.547Z,1.00
2023-03-27T01:35:57.589Z,0.87
2023-03-27T01:39:07.404Z,0.70
2023-03-27T01:41:43.504Z,1.00
2023-03-27T01:44:16.742Z,0.93
2023-03-27T01:46:51.013Z,0.63
2023-03-27T01:49:25.198Z,0.80
2023-03-27T01:51:56.705Z,0.50
2023-03-27T01:54:27.951Z,0.60
2023-03-27T01:57:04.288Z,0.70
2023-03-27T01:59:37.504Z,0.70
2023-03-27T02:02:11.317Z,1.33
2023-03-27T02:04:44.937Z,0.80
2023-03-27T02:07:19.718Z,0.70
2023-03-27T02:09:50.158Z,1.03
2023-03-27T02:12:22.818Z,0.63
2023-03-27T02:14:55.367Z,0.83
2023-03-27T02:17:26.169Z,0.60
2023-03-27T02:19:59.020Z,1.03
2023-03-27T02:22:38.020Z,0.67
2023-03-27T02:25:25.249Z,1.10
2023-03-27T02:28:04.272Z,0.80
2023-03-27T02:30:37.837Z,0.70
2023-03-27T02:33:14.773Z,1.00
2023-03-27T02:35:50.507Z,1.00
2023-03-27T02:38:23.712Z,0.80
2023-03-27T02:40:59.477Z,1.20
2023-03-27T02:43:33.306Z,1.03
2023-03-27T02:46:06.941Z,0.83
2023-03-27T02:48:39.004Z,1.33
2023-03-27T02:51:10.030Z,0.97
2023-03-27T02:53:43.587Z,0.93
2023-03-27T02:56:12.915Z,1.27
2023-03-27T02:58:47.327Z,0.97
2023-03-27T03:01:18.724Z,1.60
2023-03-27T03:03:53.751Z,1.50
2023-03-27T03:06:22.738Z,1.07
2023-03-27T03:08:50.717Z,0.90
2023-03-27T03:11:18.815Z,1.20
2023-03-27T03:13:48.113Z,1.57
2023-03-27T03:16:16.038Z,1.83
2023-03-27T03:18:44.012Z,1.77
2023-03-27T03:21:11.936Z,1.87
2023-03-27T03:23:40.127Z,2.13
2023-03-27T03:26:08.844Z,1.00
2023-03-27T03:28:36.798Z,1.33
2023-03-27T03:31:07.442Z,1.43
2023-03-27T03:33:36.139Z,1.03
2023-03-27T03:36:04.860Z,1.43
2023-03-27T03:38:37.909Z,2.53
2023-03-27T03:41:07.290Z,2.00
2023-03-27T03:43:35.821Z,1.27
2023-03-27T03:46:04.036Z,1.60
2023-03-27T03:48:33.344Z,1.17
2023-03-27T03:51:01.300Z,1.30
2023-03-27T03:53:29.274Z,1.40
2023-03-27T03:55:57.584Z,1.90
2023-03-27T03:58:34.701Z,2.27
2023-03-27T04:01:03.781Z,1.40
2023-03-27T04:03:34.054Z,1.23
2023-03-27T04:06:05.294Z,1.13
2023-03-27T04:08:34.063Z,1.27
2023-03-27T04:11:02.037Z,1.20
2023-03-27T04:13:29.986Z,1.17
2023-03-27T04:16:01.570Z,1.20
2023-03-27T04:18:32.486Z,0.80
2023-03-27T04:21:03.007Z,1.20
2023-03-27T04:23:33.266Z,1.43
2023-03-27T04:26:03.945Z,1.23
2023-03-27T04:28:34.437Z,1.70
2023-03-27T04:31:06.302Z,1.17
2023-03-27T04:33:35.203Z,2.70
2023-03-27T04:36:07.827Z,2.17
2023-03-27T04:38:36.725Z,2.20
2023-03-27T04:41:06.084Z,1.40
2023-03-27T04:43:36.680Z,1.30
2023-03-27T04:46:05.919Z,1.23
2023-03-27T04:48:34.211Z,0.83
2023-03-27T04:51:02.157Z,2.03
2023-03-27T04:53:32.267Z,1.93
2023-03-27T04:56:01.205Z,1.10
2023-03-27T04:58:29.270Z,1.80
2023-03-27T05:00:57.606Z,1.20
2023-03-27T05:03:28.220Z,1.63
2023-03-27T05:05:56.347Z,1.67
2023-03-27T05:08:24.307Z,1.40
2023-03-27T05:10:53.753Z,2.10
2023-03-27T05:13:22.663Z,1.40
2023-03-27T05:15:50.791Z,2.53
2023-03-27T05:18:19.012Z,1.83
2023-03-27T05:20:49.454Z,3.00
2023-03-27T05:23:17.450Z,2.20
2023-03-27T05:26:00.596Z,2.13
2023-03-27T05:28:30.563Z,1.70
2023-03-27T05:30:58.882Z,1.80
2023-03-27T05:33:27.392Z,1.53
2023-03-27T05:35:57.362Z,2.53
2023-03-27T05:38:26.614Z,1.10
2023-03-27T05:40:54.657Z,2.00
2023-03-27T05:43:22.751Z,3.87
2023-03-27T05:45:52.180Z,1.27
2023-03-27T05:48:20.162Z,1.80
2023-03-27T05:50:48.112Z,1.87
2023-03-27T05:53:16.104Z,1.40
2023-03-27T05:55:44.030Z,1.07
2023-03-27T05:58:13.265Z,2.87
2023-03-27T06:00:43.126Z,1.93
2023-03-27T06:03:14.547Z,2.07
2023-03-27T06:05:43.947Z,2.00
2023-03-27T06:08:12.114Z,1.37
2023-03-27T06:10:43.252Z,1.57
2023-03-27T06:13:13.627Z,2.30
2023-03-27T06:15:43.441Z,1.33
2023-03-27T06:18:12.970Z,1.20
2023-03-27T06:20:41.134Z,1.90
2023-03-27T06:23:09.398Z,1.03
2023-03-27T06:25:39.322Z,1.43
2023-03-27T06:28:09.353Z,1.47
2023-03-27T06:30:38.873Z,1.63
2023-03-27T06:33:08.579Z,1.67
2023-03-27T06:35:39.681Z,2.23
2023-03-27T06:38:07.738Z,1.60
2023-03-27T06:40:36.330Z,2.63
2023-03-27T06:43:06.773Z,2.33
2023-03-27T06:45:38.050Z,1.50
2023-03-27T06:48:15.292Z,1.63
2023-03-27T06:50:49.945Z,1.43
2023-03-27T06:55:50.552Z,1.33
2023-03-27T06:58:19.557Z,2.43
2023-03-27T07:00:48.816Z,4.30
2023-03-27T07:03:17.823Z,2.60
2023-03-27T07:05:46.509Z,2.40
2023-03-27T07:10:59.821Z,1.70
2023-03-27T07:13:35.962Z,2.17
2023-03-27T07:16:04.483Z,2.20
2023-03-27T07:18:32.756Z,1.57
2023-03-27T07:21:00.952Z,1.63
2023-03-27T07:23:30.495Z,2.00
2023-03-27T07:25:59.439Z,1.20
2023-03-27T07:28:27.600Z,2.20
2023-03-27T07:30:56.772Z,1.40
2023-03-27T07:33:25.202Z,1.53
2023-03-27T07:35:53.386Z,1.27
2023-03-27T07:38:21.372Z,2.20
2023-03-27T07:40:50.696Z,1.80
2023-03-27T07:43:18.688Z,1.77
2023-03-27T07:45:46.674Z,1.53
2023-03-27T07:48:16.182Z,1.60
2023-03-27T07:50:44.967Z,1.47
2023-03-27T07:53:32.837Z,1.43
2023-03-27T07:56:03.570Z,1.97
2023-03-27T07:58:31.679Z,2.03
2023-03-27T08:01:02.281Z,2.00
2023-03-27T08:03:32.090Z,1.60
2023-03-27T08:06:01.193Z,2.50
2023-03-27T08:08:29.746Z,2.07
2023-03-27T08:10:59.051Z,1.20
2023-03-27T08:13:44.079Z,2.77
2023-03-27T08:16:14.368Z,1.60
2023-03-27T08:18:42.618Z,1.73
2023-03-27T08:21:14.247Z,1.23
2023-03-27T08:23:43.308Z,2.10
2023-03-27T08:26:11.443Z,1.50
2023-03-27T08:28:41.151Z,1.50
2023-03-27T08:31:11.827Z,1.77
2023-03-27T08:33:41.852Z,2.93
2023-03-27T08:36:11.773Z,1.90
2023-03-27T08:38:40.339Z,1.27
2023-03-27T08:41:09.167Z,1.73
2023-03-27T08:43:41.836Z,1.20
2023-03-27T08:46:17.551Z,1.37
2023-03-27T08:48:54.611Z,2.70
2023-03-27T08:51:28.406Z,1.60
2023-03-27T08:53:59.826Z,1.73
2023-03-27T09:00:59.869Z,1.20
2023-03-27T09:03:32.462Z,3.07
2023-03-27T09:06:18.512Z,1.60
2023-03-27T09:11:44.917Z,1.63
2023-03-27T09:14:26.039Z,1.30
2023-03-27T09:16:59.244Z,2.13
2023-03-27T09:19:35.358Z,2.23
2023-03-27T09:22:08.987Z,1.90
2023-03-27T09:24:42.042Z,2.23
2023-03-27T09:27:18.635Z,0.97
2023-03-27T09:29:51.372Z,1.83
2023-03-27T09:32:35.937Z,1.83
2023-03-27T09:35:04.678Z,1.40
2023-03-27T09:37:34.534Z,2.17
2023-03-27T09:40:07.414Z,1.03
2023-03-27T09:42:40.377Z,1.77
2023-03-27T09:45:11.342Z,1.10
2023-03-27T09:47:46.588Z,1.27
2023-03-27T09:50:27.752Z,1.20
2023-03-27T09:53:08.507Z,1.63
2023-03-27T09:55:45.293Z,1.63
2023-03-27T09:58:17.008Z,1.97
2023-03-27T10:00:45.044Z,1.27
2023-03-27T10:03:18.897Z,0.97
2023-03-27T10:05:47.896Z,2.63
2023-03-27T10:08:33.747Z,2.13
2023-03-27T10:11:07.886Z,1.03
2023-03-27T10:13:36.224Z,2.10
2023-03-27T10:16:06.303Z,1.57
2023-03-27T10:18:43.419Z,2.30
2023-03-27T10:21:17.469Z,2.57
2023-03-27T10:23:49.446Z,1.53
2023-03-27T10:26:20.269Z,1.70
2023-03-27T10:28:51.522Z,1.00
2023-03-27T10:31:29.635Z,1.23
2023-03-27T10:34:01.921Z,1.80
2023-03-27T10:36:34.767Z,1.30
2023-03-27T10:39:05.710Z,1.90
2023-03-27T10:41:37.029Z,2.07
2023-03-27T10:44:08.069Z,1.30
2023-03-27T10:46:40.958Z,1.30
2023-03-27T10:49:19.598Z,0.90
2023-03-27T10:51:51.889Z,2.00
2023-03-27T10:54:33.597Z,1.30
2023-03-27T10:57:04.243Z,1.10
2023-03-27T10:59:41.861Z,1.70
2023-03-27T11:02:18.166Z,2.10
2023-03-27T11:04:52.596Z,1.33
2023-03-27T11:07:28.087Z,1.17
2023-03-27T11:10:04.670Z,0.70
2023-03-27T11:12:36.379Z,1.70
2023-03-27T11:15:12.572Z,1.70
2023-03-27T11:17:45.108Z,0.80
2023-03-27T11:20:22.512Z,1.60
2023-03-27T11:22:55.842Z,1.87
2023-03-27T11:25:33.554Z,1.60
2023-03-27T11:28:09.623Z,0.77
2023-03-27T11:30:44.194Z,2.03
2023-03-27T11:33:27.831Z,1.10
2023-03-27T11:36:05.110Z,2.70
2023-03-27T11:38:38.306Z,2.17
2023-03-27T11:41:08.028Z,0.97
2023-03-27T11:43:40.574Z,1.03
2023-03-27T11:46:22.161Z,0.83
2023-03-27T11:49:01.898Z,1.33
2023-03-27T11:51:46.076Z,0.93
2023-03-27T11:54:25.411Z,1.40
2023-03-27T11:56:55.361Z,1.10
2023-03-27T11:59:42.727Z,1.40
2023-03-27T12:02:55.773Z,1.03
2023-03-27T12:05:35.417Z,1.13
2023-03-27T12:08:10.990Z,1.83
2023-03-27T12:10:40.712Z,1.20
2023-03-27T12:13:42.454Z,1.43
2023-03-27T12:16:23.214Z,1.13
2023-03-27T12:19:10.731Z,1.93
2023-03-27T12:21:58.447Z,1.27
2023-03-27T12:24:42.328Z,1.50
2023-03-27T12:27:34.246Z,1.87
2023-03-27T12:30:17.764Z,1.30
2023-03-27T12:33:04.535Z,1.33
2023-03-27T12:35:37.083Z,1.10
2023-03-27T12:38:08.631Z,1.37
2023-03-27T12:40:42.322Z,1.33
2023-03-27T12:43:27.303Z,1.10
2023-03-27T12:46:20.664Z,1.70
2023-03-27T12:48:56.541Z,0.70
2023-03-27T12:51:43.622Z,1.27
2023-03-27T12:54:26.678Z,1.13
2023-03-27T12:57:06.627Z,1.77
2023-03-27T12:59:38.873Z,1.40
2023-03-27T13:02:46.888Z,1.53
2023-03-27T13:05:39.154Z,1.17
2023-03-27T13:08:32.193Z,1.20
2023-03-27T13:11:10.435Z,1.17
2023-03-27T13:14:07.578Z,1.40
2023-03-27T13:16:58.444Z,1.00
2023-03-27T13:19:53.297Z,1.03
2023-03-27T13:22:36.891Z,0.90
2023-03-27T13:25:30.287Z,1.20
2023-03-27T13:28:27.204Z,1.70
2023-03-27T13:30:58.520Z,0.83
2023-03-27T13:33:38.646Z,0.80
2023-03-27T13:36:14.272Z,2.70
2023-03-27T13:39:04.217Z,0.90
2023-03-27T13:42:17.038Z,1.03
2023-03-27T13:45:04.453Z,1.27
2023-03-27T13:48:21.143Z,1.43
2023-03-27T13:51:14.320Z,1.17
2023-03-27T13:53:55.349Z,1.10
2023-03-27T13:56:52.413Z,1.20
2023-03-27T13:59:57.288Z,0.90
2023-03-27T14:03:01.826Z,0.87
2023-03-27T14:05:55.278Z,1.50
2023-03-27T14:08:36.790Z,0.80
2023-03-27T14:11:25.696Z,1.10
2023-03-27T14:14:18.464Z,1.43
2023-03-27T14:17:01.577Z,0.83
2023-03-27T14:20:02.062Z,1.63
2023-03-27T14:22:36.120Z,1.83
2023-03-27T14:25:12.079Z,0.70
2023-03-27T14:27:42.243Z,1.23
2023-03-27T14:30:16.957Z,1.10
2023-03-27T14:32:46.994Z,1.43
2023-03-27T14:35:27.553Z,1.00
2023-03-27T14:37:57.111Z,0.90
2023-03-27T14:40:30.443Z,0.97
2023-03-27T14:43:01.101Z,0.83
2023-03-27T14:45:33.016Z,1.10
2023-03-27T14:48:03.715Z,1.83
2023-03-27T14:50:34.362Z,1.00
2023-03-27T14:53:08.800Z,0.77
2023-03-27T14:55:42.425Z,1.20
2023-03-27T14:58:18.367Z,1.30
2023-03-27T15:00:52.242Z,0.83
2023-03-27T15:03:24.053Z,1.33
2023-03-27T15:06:00.755Z,1.07
2023-03-27T15:08:33.566Z,0.87
2023-03-27T15:11:04.725Z,1.33
2023-03-27T15:13:36.370Z,1.03
2023-03-27T15:16:06.689Z,1.03
2023-03-27T15:18:38.895Z,0.90
2023-03-27T15:21:11.381Z,1.00
2023-03-27T15:23:44.396Z,1.23
2023-03-27T15:26:19.884Z,1.00
2023-03-27T15:28:55.420Z,0.77
2023-03-27T15:31:25.683Z,1.27
2023-03-27T15:34:02.060Z,1.53
2023-03-27T15:36:34.156Z,0.80
2023-03-27T15:39:04.139Z,0.80
2023-03-27T15:41:56.983Z,0.77
2023-03-27T15:44:31.666Z,1.00
2023-03-27T15:47:01.115Z,0.60
2023-03-27T15:49:32.236Z,0.93
2023-03-27T15:52:02.049Z,0.53
2023-03-27T15:54:33.157Z,0.93
2023-03-27T15:57:10.136Z,1.10
2023-03-27T15:59:51.212Z,0.60
2023-03-27T16:02:22.097Z,1.00
2023-03-27T16:04:54.387Z,0.87
2023-03-27T16:07:25.340Z,0.90
2023-03-27T16:09:55.960Z,0.70
2023-03-27T16:12:31.713Z,0.80
2023-03-27T16:15:04.361Z,1.23
2023-03-27T16:17:40.405Z,0.73
2023-03-27T16:20:34.565Z,0.77
2023-03-27T16:23:04.190Z,0.77
2023-03-27T16:25:32.210Z,0.80
2023-03-27T16:28:01.886Z,1.27
2023-03-27T16:30:34.306Z,0.53
2023-03-27T16:33:02.762Z,0.60
2023-03-27T16:35:32.441Z,1.03
2023-03-27T16:38:00.858Z,0.73
2023-03-27T16:40:28.905Z,2.20
2023-03-27T16:42:56.949Z,1.00
2023-03-27T16:45:26.520Z,1.27
2023-03-27T16:47:54.844Z,0.83
2023-03-27T16:50:25.575Z,0.50
2023-03-27T16:52:53.779Z,1.60
2023-03-27T16:55:21.843Z,1.97
2023-03-27T16:57:52.282Z,2.10
2023-03-27T17:00:21.278Z,1.13
2023-03-27T17:02:50.869Z,0.90
2023-03-27T17:05:19.114Z,2.83
2023-03-27T17:07:48.193Z,1.37
2023-03-27T17:10:16.840Z,0.93
2023-03-27T17:12:44.850Z,2.00
2023-03-27T17:15:15.018Z,1.03
2023-03-27T17:17:43.181Z,1.53
2023-03-27T17:20:13.376Z,1.03
2023-03-27T17:22:41.372Z,1.33
2023-03-27T17:25:10.352Z,1.23
2023-03-27T17:27:38.882Z,1.27
2023-03-27T17:30:08.188Z,1.53
2023-03-27T17:32:36.233Z,1.63
2023-03-27T17:35:04.442Z,1.43
2023-03-27T17:37:35.620Z,1.30
2023-03-27T17:40:06.361Z,1.47
2023-03-27T17:42:34.286Z,1.57
2023-03-27T17:45:02.250Z,1.70
2023-03-27T17:47:30.583Z,1.27
2023-03-27T17:49:58.572Z,1.73
2023-03-27T17:52:27.187Z,2.43
2023-03-27T17:54:58.232Z,1.37
2023-03-27T17:57:27.855Z,2.23
2023-03-27T17:59:56.110Z,1.70
2023-03-27T18:02:24.096Z,1.03
2023-03-27T18:04:52.966Z,1.40
2023-03-27T18:07:21.547Z,1.77
2023-03-27T18:09:49.878Z,1.60
2023-03-27T18:12:19.244Z,1.40
2023-03-27T18:14:47.241Z,1.40
2023-03-27T18:17:15.907Z,1.03
2023-03-27T18:19:43.902Z,2.10
2023-03-27T18:22:11.872Z,1.40
2023-03-27T18:24:40.494Z,1.20
2023-03-27T18:27:08.471Z,1.40
2023-03-27T18:29:37.866Z,2.10
2023-03-27T18:32:05.998Z,1.17
2023-03-27T18:34:33.986Z,1.40
2023-03-27T18:37:01.915Z,1.20
2023-03-27T18:39:30.498Z,2.13
2023-03-27T18:42:01.529Z,1.10
2023-03-27T18:44:29.538Z,1.47
2023-03-27T18:46:58.838Z,1.07
2023-03-27T18:49:26.820Z,1.10
2023-03-27T18:51:54.794Z,1.47
2023-03-27T18:54:22.844Z,1.90
2023-03-27T18:56:51.973Z,1.07
2023-03-27T18:59:20.052Z,1.67
2023-03-27T19:01:48.780Z,1.20
2023-03-27T19:04:18.963Z,1.73
2023-03-27T19:06:47.321Z,1.30
2023-03-27T19:09:15.524Z,1.57
2023-03-27T19:11:44.053Z,1.40
2023-03-27T19:14:12.237Z,1.20
2023-03-27T19:16:40.163Z,1.67
2023-03-27T19:19:08.092Z,1.20
2023-03-27T19:21:38.267Z,1.37
2023-03-27T19:24:06.835Z,1.20
2023-03-27T19:26:35.292Z,1.37
2023-03-27T19:29:03.233Z,1.27
2023-03-27T19:31:31.439Z,2.07
2023-03-27T19:34:00.127Z,1.23
2023-03-27T19:36:28.104Z,1.63
2023-03-27T19:38:57.655Z,1.73
2023-03-27T19:41:25.842Z,1.43
2023-03-27T19:43:53.960Z,1.80
2023-03-27T19:46:23.199Z,2.57
2023-03-27T19:48:51.339Z,1.47
2023-03-27T19:51:19.256Z,3.07
2023-03-27T19:53:47.367Z,1.47
2023-03-27T19:56:16.928Z,1.30
2023-03-27T19:58:44.938Z,1.90
2023-03-27T20:01:12.886Z,1.47
2023-03-27T20:03:41.237Z,1.50
2023-03-27T20:06:12.112Z,1.73
2023-03-27T20:08:43.166Z,1.43
2023-03-27T20:11:11.100Z,1.60
2023-03-27T20:13:53.222Z,1.70
2023-03-27T20:16:26.485Z,1.57
2023-03-27T20:19:04.567Z,2.20
2023-03-27T20:21:34.387Z,1.47
2023-03-27T20:24:02.504Z,1.70
2023-03-27T20:26:32.443Z,1.50
2023-03-27T20:29:01.828Z,1.93
2023-03-27T20:31:29.867Z,1.63
2023-03-27T20:33:58.061Z,1.90
2023-03-27T20:36:26.166Z,2.00
2023-03-27T20:38:55.061Z,2.20
2023-03-27T20:41:27.149Z,2.07
2023-03-27T20:43:55.297Z,2.23
2023-03-27T20:46:24.568Z,2.40
2023-03-27T20:48:54.801Z,2.70
2023-03-27T20:51:24.219Z,2.20
2023-03-27T20:53:55.658Z,3.23
2023-03-27T20:56:24.204Z,2.70
2023-03-27T20:58:52.221Z,2.80
2023-03-27T21:01:20.414Z,5.23
2023-03-27T21:03:49.938Z,2.93
2023-03-27T21:06:20.501Z,3.20
2023-03-27T21:08:48.827Z,3.03
2023-03-27T21:11:16.779Z,2.70
2023-03-27T21:13:44.699Z,2.53
2023-03-27T21:16:12.664Z,2.80
2023-03-27T21:18:40.932Z,3.17
2023-03-27T21:21:10.476Z,3.00
2023-03-27T21:23:39.237Z,2.53
2023-03-27T21:26:08.149Z,2.67
2023-03-27T21:28:36.146Z,2.80
2023-03-27T21:31:07.667Z,3.00
2023-03-27T21:33:36.061Z,2.70
2023-03-27T21:36:04.799Z,3.03
2023-03-27T21:38:34.121Z,2.87
2023-03-27T21:41:02.925Z,3.00
2023-03-27T21:43:31.433Z,3.07
2023-03-27T21:46:01.560Z,3.13
2023-03-27T21:48:29.948Z,3.10
2023-03-27T21:51:01.368Z,2.70
2023-03-27T21:53:29.959Z,2.90
2023-03-27T21:55:59.778Z,2.80
2023-03-27T21:58:28.213Z,2.83
2023-03-27T22:00:58.031Z,2.60
2023-03-27T22:03:27.127Z,3.43
2023-03-27T22:06:10.114Z,2.83
2023-03-27T22:08:41.265Z,2.80
2023-03-27T22:11:11.899Z,3.00
2023-03-27T22:13:41.450Z,2.80
2023-03-27T22:16:11.968Z,3.10
2023-03-27T22:18:40.439Z,3.37
2023-03-27T22:21:17.267Z,3.10
2023-03-27T22:23:46.201Z,2.70
2023-03-27T22:26:15.593Z,2.73
2023-03-27T22:28:43.660Z,3.07
2023-03-27T22:31:12.619Z,3.30
2023-03-27T22:33:41.358Z,3.00
2023-03-27T22:36:11.782Z,2.97
2023-03-27T22:38:40.706Z,3.47
2023-03-27T22:41:10.195Z,3.47
2023-03-27T22:43:39.799Z,2.60
2023-03-27T22:46:09.538Z,3.03
2023-03-27T22:48:37.817Z,2.90
2023-03-27T22:51:06.547Z,3.43
2023-03-27T22:53:35.289Z,2.80
2023-03-27T22:56:04.101Z,2.90
2023-03-27T22:58:32.505Z,2.60
2023-03-27T23:01:03.763Z,2.50
2023-03-27T23:03:31.743Z,2.70
2023-03-27T23:05:59.933Z,2.63
2023-03-27T23:08:29.283Z,2.60
2023-03-27T23:10:58.868Z,1.90
2023-03-27T23:13:28.988Z,2.73
2023-03-27T23:15:57.273Z,2.50
2023-03-27T23:18:27.180Z,2.37
2023-03-27T23:20:56.168Z,2.60
2023-03-27T23:23:24.774Z,2.27
2023-03-27T23:25:52.809Z,2.30
2023-03-27T23:28:21.529Z,1.97
2023-03-27T23:30:55.978Z,2.40
2023-03-27T23:33:25.368Z,2.27
2023-03-27T23:36:01.020Z,2.30
2023-03-27T23:38:29.380Z,2.40
2023-03-27T23:40:57.644Z,2.13
2023-03-27T23:43:26.719Z,2.30
2023-03-27T23:45:55.492Z,1.60
2023-03-27T23:48:24.076Z,2.27
2023-03-27T23:50:53.174Z,1.90
2023-03-27T23:53:23.023Z,2.20
2023-03-27T23:55:50.913Z,1.93
2023-03-27T23:58:19.048Z,1.60
